Terminal Aerodrome Forecast
Issued by NWS Mt. Holly, NJ

Home | Current Version | Previous Version | Text Only | Print | Product List | Glossary On
Versions: 1 2 3 4 5 6 7 8 9 10 11 12 13 14 15 16 17 18 19 20 21 22 23 24 25 26 27 28 29 30 31 32 33 34
005
FTAK31 PANC 230523
TAFABE
TAF
PABE 230523Z 2306/2406 27007KT P6SM FEW050
     FM231200 22007KT 3SM BR SCT004 OVC010
     FM231400 21010KT 1SM BR BKN002 OVC008
     FM231800 20012KT P6SM FEW004 BKN022=

USA.gov is the U.S. government's official web portal to all federal, state and local government web resources and services.